Flight Track Log - Related Links

Times and Time Zones

All times are in EDT time to prevent confusion due to time zone crossing. See the EJA947 flight status page for this flight to view local times or setup timezone preferences in your user account.

Time Position Orientation Groundspeed Altitude Reporting Facility
EDT Latitude Longitude Course Direction KTS MPH feet Rate Location/Type
Mon 10:13:36 AM 41.7667 -87.7667 270° West 166 191 1,800  Level Chicago TRACON
Mon 10:14:36 AM 41.7500 -87.8500 255° West 235 270 4,100 1,600 Climbing Chicago TRACON
Mon 10:15:36 AM 41.7500 -87.9333 270° West 257 296 5,000 1,172 Climbing Chicago TRACON
Mon 10:16:03 AM 41.7450 -87.9686 259° West 260 299 5,800 2,697 Climbing Chicago Center
Mon 10:17:05 AM 41.7422 -88.0856 268° West 265 305 9,000 2,806 Climbing Chicago Center
Mon 10:18:07 AM 41.7406 -88.1872 269° West 274 315 11,600 1,645 Climbing Chicago Center
Mon 10:19:00 AM 41.7333 -88.5518 270° West  Level FlightAware Approximate
Mon 10:19:09 AM 41.7400 -88.2939 270° West 287 330 12,400  Level Chicago Center
Mon 10:20:11 AM 41.7347 -88.4219 267° West 343 395 14,400 2,274 Climbing Chicago Center
Mon 10:21:13 AM 41.7306 -88.5544 268° West 359 413 17,100 2,419 Climbing Chicago Center
Mon 10:22:15 AM 41.7242 -88.7183 267° West 369 425 19,400 2,177 Climbing Chicago Center
Mon 10:23:17 AM 41.7183 -88.8628 267° West 388 447 21,600 2,371 Climbing Chicago Center
Mon 10:24:19 AM 41.7111 -89.0103 266° West 400 460 24,300 2,516 Climbing Chicago Center
Mon 10:25:21 AM 41.7106 -89.1572 270° West 399 459 26,800 2,177 Climbing Chicago Center
Mon 10:26:23 AM 41.7097 -89.3094 270° West 408 470 28,800 2,049 Climbing Chicago Center
Mon 10:27:24 AM 41.7086 -89.4981 270° West 420 483 31,000 2,488 Climbing Chicago Center
Mon 10:28:26 AM 41.7078 -89.6494 270° West 427 491 33,900 2,516 Climbing Chicago Center
Mon 10:29:28 AM 41.7064 -89.8014 269° West 417 480 36,200 1,984 Climbing Chicago Center
Mon 10:30:30 AM 41.7036 -89.9550 269° West 414 476 38,000 1,645 Climbing Chicago Center
Mon 10:31:32 AM 41.7019 -90.1114 269° West 420 483 39,600 968 Climbing Chicago Center
Mon 10:32:34 AM 41.6992 -90.2700 269° West 426 490 40,000 194 Climbing Chicago Center
Mon 10:33:36 AM 41.6953 -90.4778 269° West 459 528 40,000  Level Chicago Center
Mon 10:34:38 AM 41.6919 -90.6556 269° West 464 534 40,000  Level Chicago Center
Mon 10:35:40 AM 41.6886 -90.8286 269° West 467 537 40,000  Level Chicago Center
Mon 10:36:42 AM 41.6844 -91.0025 268° West 469 540 40,000  Level Chicago Center
Mon 10:37:43 AM 41.6822 -91.1753 269° West 467 537 40,000  Level Chicago Center
Mon 10:38:45 AM 41.6761 -91.3542 267° West 477 549 40,000  Level Chicago Center
Mon 10:39:47 AM 41.6717 -91.5250 268° West 468 539 40,000  Level Chicago Center
Mon 10:40:49 AM 41.6664 -91.7336 268° West 469 540 40,000  Level Chicago Center
Mon 10:41:51 AM 41.6606 -91.9058 267° West 466 536 40,000  Level Chicago Center
Mon 10:42:52 AM 41.6556 -92.0778 268° West 466 536 40,000  Level Chicago Center
Mon 10:43:54 AM 41.6494 -92.2506 267° West 467 537 40,000  Level Chicago Center
Mon 10:44:56 AM 41.6439 -92.4231 268° West 467 537 40,000  Level Chicago Center
Mon 10:45:58 AM 41.6364 -92.5931 267° West 463 533 40,000  Level Chicago Center
Mon 10:47:00 AM 41.6294 -92.7892 267° West 468 539 40,000  Level Chicago Center
Mon 10:48:01 AM 41.6239 -92.9594 268° West 467 537 40,000  Level Chicago Center
Mon 10:49:03 AM 41.6172 -93.1319 267° West 468 539 40,000  Level Chicago Center
Mon 10:50:05 AM 41.6078 -93.3375 267° West 467 537 40,000  Level Chicago Center
Mon 10:51:07 AM 41.5997 -93.5083 266° West 466 536 40,000  Level Chicago Center
Mon 10:52:08 AM 41.5936 -93.6781 267° West 462 532 40,000  Level Minneapolis Center
Mon 10:53:10 AM 41.5864 -93.8506 267° West 468 539 40,000  Level Minneapolis Center
Mon 10:54:12 AM 41.5775 -94.0244 266° West 472 543 40,000  Level Minneapolis Center
Mon 10:55:13 AM 41.5692 -94.1981 266° West 472 543 40,000  Level Minneapolis Center
Mon 10:56:15 AM 41.5583 -94.3833 266° West 475 547 40,000  Level Minneapolis Center
Mon 10:57:17 AM 41.5469 -94.5928 266° West 472 543 40,000  Level Minneapolis Center
Mon 10:58:18 AM 41.5378 -94.7678 266° West 472 543 40,000  Level Minneapolis Center
Mon 10:59:20 AM 41.5303 -94.9092 266° West 475 547 40,000  Level Minneapolis Center
Mon 11:00:22 AM 41.5181 -95.1169 266° West 470 541 40,000  Level Minneapolis Center
Mon 11:01:23 AM 41.5081 -95.2900 266° West 469 540 40,000  Level Minneapolis Center
Mon 11:02:25 AM 41.4978 -95.4606 265° West 464 534 40,000  Level Minneapolis Center
Mon 11:03:27 AM 41.4853 -95.6422 265° West 459 528 40,000  Level Minneapolis Center
Mon 11:04:28 AM 41.4753 -95.8125 266° West 458 527 40,000  Level Minneapolis Center
Mon 11:05:30 AM 41.4636 -95.9819 265° West 459 528 40,000  Level Minneapolis Center
Mon 11:06:32 AM 41.4533 -96.1497 265° West 455 524 40,000  Level Minneapolis Center
Mon 11:07:33 AM 41.4419 -96.3175 265° West 456 525 40,000  Level Minneapolis Center
Mon 11:08:35 AM 41.4300 -96.4908 265° West 455 524 40,000  Level Minneapolis Center
Mon 11:09:36 AM 41.4153 -96.6886 264° West 451 519 40,000  Level Minneapolis Center
Mon 11:10:38 AM 41.4031 -96.8542 264° West 450 518 40,000  Level Minneapolis Center
Mon 11:11:40 AM 41.3894 -97.0225 264° West 455 524 40,000  Level Minneapolis Center
Mon 11:12:41 AM 41.3769 -97.1883 264° West 452 520 40,000  Level Minneapolis Center
Mon 11:13:43 AM 41.3644 -97.3575 264° West 458 527 40,000  Level Minneapolis Center
Mon 11:14:44 AM 41.3511 -97.5269 264° West 459 528 40,000  Level Minneapolis Center
Mon 11:15:46 AM 41.3372 -97.6958 264° West 460 529 40,000  Level Minneapolis Center
Mon 11:16:48 AM 41.3211 -97.8964 264° West 461 531 40,000  Level Minneapolis Center
Mon 11:17:49 AM 41.3067 -98.0633 263° West 458 527 40,000  Level Minneapolis Center
Mon 11:18:51 AM 41.2931 -98.2308 264° West 456 525 40,000  Level Minneapolis Center
Mon 11:19:52 AM 41.2789 -98.3989 264° West 458 527 40,000  Level Minneapolis Center
Mon 11:20:54 AM 41.2639 -98.5703 263° West 458 527 40,000  Level Minneapolis Center
Mon 11:21:55 AM 41.2486 -98.7375 263° West 458 527 40,000  Level Minneapolis Center
Mon 11:22:51 AM 41.2350 -98.8844 263° West 455 524 40,000  Level Denver Center
Mon 11:23:53 AM 41.2183 -99.0717 263° West 457 526 40,000  Level Denver Center
Mon 11:24:55 AM 41.2033 -99.2239 263° West 456 525 40,000  Level Denver Center
Mon 11:25:57 AM 41.1647 -99.4164 255° West 451 519 40,000  Level Denver Center
Mon 11:26:59 AM 41.1319 -99.5633 254° West 452 520 40,000  Level Denver Center
Mon 11:28:01 AM 41.0933 -99.7408 254° West 451 519 40,000  Level Denver Center
Mon 11:29:03 AM 41.0589 -99.8942 253° West 452 520 40,000  Level Denver Center
Mon 11:30:05 AM 41.0194 -100.0744 254° West 456 525 40,000  Level Denver Center
Mon 11:31:07 AM 40.9839 -100.2289 253° West 457 526 40,000  Level Denver Center
Mon 11:32:09 AM 40.9431 -100.4106 253° West 460 529 40,000  Level Denver Center
Mon 11:33:11 AM 40.9078 -100.5661 253° West 463 533 40,000  Level Denver Center
Mon 11:34:13 AM 40.8667 -100.7400 253° West 464 534 40,000  Level Denver Center
Mon 11:35:15 AM 40.8250 -100.9192 253° West 468 539 40,000  Level Denver Center
Mon 11:36:17 AM 40.7892 -101.0744 253° West 465 535 40,000  Level Denver Center
Mon 11:37:19 AM 40.7522 -101.2311 253° West 467 537 40,000  Level Denver Center
Mon 11:38:21 AM 40.7089 -101.4144 253° West 469 540 40,000  Level Denver Center
Mon 11:39:23 AM 40.6719 -101.5714 253° West 468 539 40,000  Level Denver Center
Mon 11:40:25 AM 40.6289 -101.7525 253° West 466 536 40,000  Level Denver Center
Mon 11:41:27 AM 40.5914 -101.9061 252° West 463 533 40,000 -528 Level Denver Center
Mon 11:42:30 AM 40.5475 -102.0825 252° West 454 522 38,900 -1,248 Descending Denver Center
Mon 11:43:32 AM 40.5114 -102.2319 252° West 449 517 37,400 -1,742 Descending Denver Center
Mon 11:44:34 AM 40.4764 -102.4089 255° West 450 518 35,300 -1,935 Descending Denver Center
Mon 11:45:36 AM 40.4494 -102.5583 257° West 441 507 33,400 -1,597 Descending Denver Center
Mon 11:46:38 AM 40.4203 -102.7128 256° West 441 507 32,000 -677 Descending Denver Center
Mon 11:47:40 AM 40.3858 -102.8983 256° West 446 513 32,000  Level Denver Center
Mon 11:48:42 AM 40.3550 -103.0558 256° West 443 510 32,000 -44 Level Denver Center
Mon 11:49:56 AM 40.3256 -103.2131 256° West 442 509 31,900 -1,500 Descending Denver Center
Mon 11:50:58 AM 40.2908 -103.3906 256° West 428 493 28,600 -2,903 Descending Denver Center
Mon 11:52:00 AM 40.2633 -103.5372 256° West 417 480 25,900 -2,710 Descending Denver Center
Mon 11:53:02 AM 40.2319 -103.6928 255° West 376 433 23,000 -2,419 Descending Denver Center
Mon 11:54:04 AM 40.2086 -103.8075 255° West 327 376 20,900 -1,597 Descending Denver Center
Mon 11:55:06 AM 40.1889 -103.8811 251° West 284 327 19,700 -1,210 Descending Denver Center
Mon 11:56:08 AM 40.1339 -103.9967 238° Southwest 284 327 18,400 -1,016 Descending Denver Center
Mon 11:57:10 AM 40.0942 -104.0839 239° Southwest 279 321 17,600 -672 Descending Denver Center
Mon 11:58:13 AM 40.0514 -104.1742 238° Southwest 293 337 17,000 -336 Descending Denver Center
Mon 11:59:15 AM 40.0075 -104.2700 239° Southwest 284 327 16,900 -528 Descending Denver Center
Mon 12:00:18 PM 39.9722 -104.3447 238° Southwest 285 328 15,900 -974 Descending Denver Center
Mon 12:01:12 PM 39.9333 -104.4333 240° Southwest 284 327 15,000 -474 Descending Denver TRACON
Mon 12:02:12 PM 39.8833 -104.5333 237° Southwest 286 329 15,000  Level Denver TRACON
Mon 12:03:25 PM 39.8258 -104.6342 233° Southwest 294 338 15,000  Level Denver Center
Mon 12:04:27 PM 39.7469 -104.6606 194° South 298 343 15,000  Level Denver Center
Mon 12:05:29 PM 39.6633 -104.6628 181° South 301 346 15,000  Level Denver Center
Mon 12:06:31 PM 39.5686 -104.6631 180° South 316 364 15,000  Level Denver Center
Mon 12:07:33 PM 39.4817 -104.6642 181° South 313 360 15,000  Level Denver Center
Mon 12:08:35 PM 39.3956 -104.6661 181° South 288 331 15,000 -145 Level Denver Center
Mon 12:09:37 PM 39.3189 -104.6667 180° South 276 318 14,700 -726 Descending Denver Center
Mon 12:10:39 PM 39.2425 -104.6692 181° South 276 318 13,500 -1,210 Descending Denver Center
Mon 12:11:41 PM 39.1886 -104.7258 219° Southwest 229 264 12,200 -1,258 Descending Denver Center
Mon 12:12:43 PM 39.1950 -104.8044 276° West 233 268 10,900 -1,065 Descending Denver Center
Mon 12:13:45 PM 39.2558 -104.8353 339° North 248 285 10,000 -1,210 Descending Denver Center
Mon 12:14:47 PM 39.3256 -104.8381 358° North 251 289 8,400 -968 Descending Denver Center
Mon 12:15:49 PM 39.3906 -104.8417 358° North 230 265 8,000 -242 Descending Denver Center
Mon 12:16:51 PM 39.4561 -104.8447 358° North 217 250 7,900 -532 Descending Denver Center
Mon 12:17:53 PM 39.5047 -104.8469 358° North 164 189 6,900 -823 Descending Denver Center
Mon 12:18:55 PM 39.5447 -104.8494 357° North 135 155 6,200 -677 Descending Denver Center

Login

Don't have an account? Register now (free) for customized features, flight alerts, and more!